• Join FlightAware (Why Join?)
  • Login
  • US Flag 
07:04AM EDT


 

Airport Tracker/Info


-or-


 

Live Flight TrackerFlight Track Log ✈ TCF6008 ✈ 16-Apr-2013 ✈ KMKE - KLGA

Flight Track Log - Related Links

Times and Time Zones

All times are in EDT time to prevent confusion due to time zone crossing. See the TCF6008 flight status page for this flight to view local times or setup timezone preferences in your user account.

Time Position Orientation Groundspeed Altitude Reporting Facility
EDT Latitude Longitude Course Direction KTS MPH feet Rate Location/Type
06:30PM 42.9500 -87.8833 124° Southeast 149 171 1,600  Level KMKE
06:30PM 42.9508 -87.8567 88° East 154 177 2,400 1,560 Climbing Chicago Center
06:32PM 42.8992 -87.8642 186° South 235 270 3,900 1,740 Climbing Chicago Center
06:33PM 42.8868 -87.2479 185° South  Level Estimated
06:33PM 42.8547 -87.9389 231° Southwest 254 292 6,100  Level Chicago Center
06:34PM 42.8712 -87.0859 180° South  Level Estimated
06:34PM 42.8092 -88.0214 233° Southwest 269 310 9,500  Level Chicago Center
06:35PM 42.8554 -86.9239 200° South  Level Estimated
06:35PM 42.7403 -88.0586 202° Southwest 300 345 11,500  Level Chicago Center
06:36PM 42.8398 -86.7667 124° Southeast  Level Estimated
06:36PM 42.6361 -88.0533 178° South 320 368 15,300  Level Chicago Center
06:37PM 42.5486 -88.0075 159° South 355 409 17,600 2,160 Climbing Chicago Center
06:38PM 42.4667 -87.9297 145° Southeast 360 414 19,800 2,040 Climbing Chicago Center
06:39PM 42.3836 -87.8492 144° Southeast 365 420 21,900 2,040 Climbing Chicago Center
06:40PM 42.2931 -87.7622 145° Southeast 373 429 24,100 1,860 Climbing Chicago Center
06:41PM 42.2094 -87.6822 145° Southeast 371 427 25,800 1,320 Climbing Chicago Center
06:42PM 42.1628 -87.5444 115° Southeast 410 472 26,900 1,200 Climbing Chicago Center
06:43PM 42.1381 -87.3822 102° East 437 503 28,300 1,140 Climbing Chicago Center
06:44PM 42.1147 -87.2203 101° East 442 509 29,300 960 Climbing Chicago Center
06:45PM 42.0825 -87.0169 102° East 460 529 30,400 960 Climbing Chicago Center
06:46PM 42.0544 -86.8417 102° East 476 548 31,300 780 Climbing Chicago Center
06:47PM 42.0306 -86.6847 102° East 479 551 32,100 900 Climbing Chicago Center
06:48PM 41.9967 -86.4717 102° East 486 559 33,200 960 Climbing Chicago Center
06:49PM 41.9681 -86.2936 102° East 486 559 34,100 840 Climbing Chicago Center
06:50PM 41.9464 -86.1186 99° East 477 549 35,000 420 Climbing Chicago Center
06:51PM 41.9306 -85.9428 97° East 474 545 35,000  Level Chicago Center
06:52PM 41.9139 -85.7706 97° East 466 536 35,000  Level Chicago Center
06:53PM 41.8986 -85.6078 97° East 443 510 35,100 240 Climbing Chicago Center
06:54PM 41.8825 -85.4378 97° East 453 521 35,600 480 Climbing Chicago Center
06:55PM 41.8658 -85.2647 97° East 460 529 36,200 540 Climbing Chicago Center
06:56PM 41.8486 -85.0856 97° East 452 520 36,700 420 Climbing Cleveland Center
06:57PM 41.8322 -84.9117 97° East 457 526 37,000 120 Climbing Cleveland Center
06:58PM 41.8117 -84.7347 99° East 468 539 37,000  Level Cleveland Center
06:59PM 41.7931 -84.5550 98° East 473 544 37,000  Level Cleveland Center
07:00PM 41.7764 -84.3758 97° East 479 551 37,000  Level Cleveland Center
07:01PM 41.7606 -84.2161 98° East 485 558 37,000  Level Cleveland Center
07:02PM 41.7494 -84.0344 95° East 485 558 37,000  Level Cleveland Center
07:03PM 41.7381 -83.8531 95° East 485 558 37,000  Level Cleveland Center
07:04PM 41.7267 -83.6717 95° East 485 558 37,000  Level Cleveland Center
07:05PM 41.7147 -83.4900 95° East 485 558 37,000  Level Cleveland Center
07:06PM 41.6986 -83.2892 96° East 490 564 37,000  Level Cleveland Center
07:07PM 41.6861 -83.1078 95° East 490 564 37,000  Level Cleveland Center
07:08PM 41.6714 -82.9239 96° East 490 564 37,000  Level Cleveland Center
07:09PM 41.6603 -82.7400 95° East 490 564 37,000  Level Cleveland Center
07:10PM 41.6464 -82.5811 97° East 490 564 37,000  Level Cleveland Center
07:11PM 41.6331 -82.3944 95° East 490 564 37,000  Level Cleveland Center
07:12PM 41.6189 -82.2136 96° East 496 571 37,000  Level Cleveland Center
07:13PM 41.6031 -82.0103 96° East 501 577 37,000  Level Cleveland Center
07:14PM 41.5883 -81.8269 96° East 501 577 37,000  Level Cleveland Center
07:15PM 41.5714 -81.6461 97° East 501 577 37,000  Level Cleveland Center
07:16PM 41.5564 -81.4600 96° East 501 577 37,000  Level Cleveland Center
07:17PM 41.5389 -81.2794 97° East 501 577 37,000  Level Cleveland Center
07:18PM 41.5231 -81.1128 97° East 501 577 37,000  Level Cleveland Center
07:19PM 41.5072 -80.9325 97° East 496 571 37,000  Level Cleveland Center
07:20PM 41.4908 -80.7439 97° East 502 578 37,000  Level Cleveland Center
07:21PM 41.4722 -80.5611 98° East 502 578 37,000  Level Cleveland Center
07:22PM 41.4553 -80.3781 97° East 502 578 37,000  Level Cleveland Center
07:23PM 41.4361 -80.1789 97° East 502 578 37,000  Level Cleveland Center
07:24PM 41.4186 -79.9933 97° East 502 578 37,000  Level Cleveland Center
07:25PM 41.4011 -79.8358 98° East 492 566 37,000  Level Cleveland Center
07:26PM 41.3808 -79.6533 98° East 497 572 37,000  Level Cleveland Center
07:27PM 41.3625 -79.4544 97° East 497 572 37,000  Level Cleveland Center
07:28PM 41.3483 -79.3136 98° East 492 566 37,000  Level Cleveland Center
07:29PM 41.3272 -79.1175 98° East 482 555 37,000  Level Cleveland Center
07:30PM 41.3036 -78.9164 99° East 482 555 37,000  Level Cleveland Center
07:31PM 41.2844 -78.7428 98° East 489 563 37,000  Level Cleveland Center
07:32PM 41.2650 -78.5747 99° East 478 550 37,000  Level Cleveland Center
07:33PM 41.2472 -78.4042 98° East 473 544 37,000  Level Cleveland Center
07:33PM 41.2381 -78.3453 102° East 462 532 37,000 -1,500 Level New York Center
07:34PM 41.2175 -78.1747 99° East 473 544 35,100 -1,020 Descending New York Center
07:35PM 41.1969 -78.0014 99° East 473 544 35,000 -60 Descending New York Center
07:37PM 41.1742 -77.8253 100° East 473 544 35,000  Level New York Center
07:37PM 41.1531 -77.6522 99° East 473 544 35,000  Level New York Center
07:39PM 41.1300 -77.4761 100° East 473 544 35,000 -480 Level New York Center
07:39PM 41.1058 -77.3086 101° East 473 544 34,100 -1,740 Descending New York Center
07:40PM 41.0861 -77.1386 99° East 473 544 31,600 420 Descending New York Center
07:42PM 41.0639 -76.9686 100° East 473 544 35,000 -2,520 Climbing New York Center
07:42PM 41.0392 -76.8014 101° East 473 544 26,700 -5,460 Descending New York Center
07:43PM 41.0142 -76.6339 101° East 468 539 24,300 -2,340 Descending New York Center
07:44PM 40.9778 -76.4797 107° East 451 519 22,000 -2,280 Descending New York Center
07:46PM 40.9447 -76.3478 108° East 435 501 19,700 -2,040 Descending New York Center
07:47PM 40.9117 -76.2050 107° East 413 475 17,900 -1,920 Descending New York Center
07:47PM 40.8747 -76.0539 108° East 395 455 16,000 -1,680 Descending New York Center
07:48PM 40.8431 -75.9225 108° East 384 442 14,700 -1,260 Descending New York Center
07:49PM 40.8147 -75.8078 108° East 372 428 13,500 -900 Descending New York Center
07:50PM 40.7825 -75.6822 109° East 372 428 13,000 -300 Descending New York Center
07:51PM 40.7439 -75.5561 112° Southeast 372 428 13,000  Level New York Center
07:53PM 40.6994 -75.4161 113° Southeast 372 428 13,000  Level New York Center
07:54PM 40.6583 -75.2931 114° Southeast 372 428 13,000 -360 Level New York Center
07:54PM 40.6231 -75.1814 113° Southeast 367 422 12,400 -1,440 Descending New York Center
07:55PM 40.5781 -75.0417 113° Southeast 361 415 10,200 -1,260 Descending New York Center
07:56PM 40.5408 -74.9192 112° Southeast 361 415 10,000 -180 Descending New York Center
07:57PM 40.5333 -74.8667 101° East 358 412 10,000  Level New York TRACON
07:58PM 40.4833 -74.7500 119° Southeast 344 396 10,000  Level New York TRACON
07:59PM 40.4500 -74.6333 111° Southeast 343 395 10,000  Level New York TRACON
08:00PM 40.4333 -74.5167 101° East 337 388 10,000 -780 Level New York TRACON
08:01PM 40.4667 -74.4000 69° East 322 371 8,400 -1,440 Descending New York TRACON
08:02PM 40.5000 -74.2833 69° East 304 350 7,000 -720 Descending New York TRACON
08:03PM 40.5167 -74.1833 78° East 309 356 7,000 -660 Level New York TRACON
08:04PM 40.5667 -74.0833 57° Northeast 298 343 5,700 -1,500 Descending New York TRACON
08:05PM 40.6333 -74.0500 21° North 289 333 4,000 -900 Descending New York TRACON
08:06PM 40.7167 -74.0167 17° North 293 337 4,000  Level New York TRACON
08:07PM 40.7833 -73.9833 21° North 303 349 4,000 -480 Level New York TRACON
08:08PM 40.8500 -73.9333 30° Northeast 295 339 3,200 -900 Descending New York TRACON
08:09PM 40.9167 -73.8667 37° Northeast 294 338 2,300 -600 Descending New York TRACON
08:10PM 40.9167 -73.8000 90° East 256 295 2,000 -240 Descending New York TRACON
08:11PM 40.8667 -73.8000 180° South 169 194 1,900 -120 Descending New York TRACON